Wick, Iowa
Current Conditions -  °F | °C
As of 7:35 AM on Friday 28 Nov 2014 (Local Time) from KI75 Reporting Station
Clear Clear  
Wind Chill: -9°   Ceiling: Unl
Heat Index: -5°   Visibility: 10mi
Dew Point: -6°   Wind: 7mph
Humidity: 90%   Direction: 140°SE
Pressure: 29.97"   Gusts: NA
Location:  41.2933°N, 93.7977°W
Report Text: KI75 281335Z AUTO 14006KT 10SM CLR M05/M06 A2997 RMK AO2 T10461060
Loading
Personal Weather Stations






























Interactive Weather Map New forecast layout! Learn more

10-Day Weather Forecast

Advertisements
Track Severe Weather on mobile